Cape Cod — WBK3243 — position and weather

sailwx.info

Track history (hours):
 
Tides and Currents Weather Stations Pressure Air Temp Water Temp Dewpoint Dewpoint Depression Visibility Wind Speed Wind Dir Waves Ship Positions

Cape Cod

More information available from US FCC via Universal Licensing System and Coast Guard Vessel Documentation Center.

Last reported at 2014-Sep-05 13:32 UTC. Time now 2014-Sep-22 06:16 UTC.
Position N 39°58' W 075°07'.
Warning: this ship's position is 16 days out of date.

Length 33 m; draft 4.8 m.

Type: Tug. MMSI: 366939770.

Date/timePositionNaut miles runAvg speedWind from/ knotsBaromVisibWave heightAir tempDewpointWater temp
2014-Sep-05 13:32N 39°58' W 075°07'37 8.6
2014-Sep-05 09:12N 39°27' W 075°33'19 4.7
2014-Sep-05 05:10N 39°13' W 075°18'1214.2
2014-Sep-05 04:20N 39°22' W 075°27'1114.0
2014-Sep-05 03:33N 39°32' W 075°33'1313.2
2014-Sep-05 02:33N 39°45' W 075°29'1211.7
2014-Sep-05 01:33N 39°51' W 075°16'  
2014-Aug-29 17:33N 37°05' W 076°09'11 9.8
2014-Aug-29 16:25N 36°58' W 076°20'7 8.0
2014-Aug-29 15:33N 36°51' W 076°18'1 0.6
2014-Aug-29 14:29N 36°51' W 076°19'2 0.1
2014-Aug-28 09:12N 36°50' W 076°16'0 0.0
2014-Aug-28 08:23N 36°50' W 076°16'0 0.0
2014-Aug-27 20:33N 36°50' W 076°16'0 0.0
2014-Aug-27 16:23N 36°50' W 076°16'0 0.0
2014-Aug-27 03:23N 36°50' W 076°16'  
Track history (hours):
 
Tides and Currents Weather Stations Pressure Air Temp Water Temp Dewpoint Dewpoint Depression Visibility Wind Speed Wind Dir Waves Ship Positions

Cape Cod

More information available from US FCC via Universal Licensing System and Coast Guard Vessel Documentation Center.

Last reported at 2014-Sep-05 13:32 UTC. Time now 2014-Sep-22 06:16 UTC.
Position N 39°58' W 075°07'.
Warning: this ship's position is 16 days out of date.

Length 33 m; draft 4.8 m.

Type: Tug. MMSI: 366939770.

Date/timePositionNaut miles runAvg speedWind from/ knotsBaromVisibWave heightAir tempDewpointWater temp
2014-Sep-05 13:32N 39°58' W 075°07'37 8.6
2014-Sep-05 09:12N 39°27' W 075°33'19 4.7
2014-Sep-05 05:10N 39°13' W 075°18'1214.2
2014-Sep-05 04:20N 39°22' W 075°27'1114.0
2014-Sep-05 03:33N 39°32' W 075°33'1313.2
2014-Sep-05 02:33N 39°45' W 075°29'1211.7
2014-Sep-05 01:33N 39°51' W 075°16'  
2014-Aug-29 17:33N 37°05' W 076°09'11 9.8
2014-Aug-29 16:25N 36°58' W 076°20'7 8.0
2014-Aug-29 15:33N 36°51' W 076°18'1 0.6
2014-Aug-29 14:29N 36°51' W 076°19'2 0.1
2014-Aug-28 09:12N 36°50' W 076°16'0 0.0
2014-Aug-28 08:23N 36°50' W 076°16'0 0.0
2014-Aug-27 20:33N 36°50' W 076°16'0 0.0
2014-Aug-27 16:23N 36°50' W 076°16'0 0.0
2014-Aug-27 03:23N 36°50' W 076°16'  

Dump ship's entire track history